BUCHANAN DAM (BUC)

Elevation: 450' · CHOWCHILLA R basin · Operator: US Army Corps of Engineers

Provisional data, subject to change.
Query executed Tuesday at 23:52:13   clock

Select a sensor type for a plot of data.
Note: Reservoir Flows are daily averages.

Earlier

Date RES ELE    STORAGE    RES CHG    TOC STO    ABV TOC    OUTFLOW    INFLOW    PPT INC    TEMP MN    TEMP MX   
 FEET   AF   AF   AF   AF   CFS   CFS   INCHES   DEG F   DEG F  
08/03/2014 470.64 12536 -11 150000 -137464 0 -2 -- 23 33
08/04/2014 470.63 12531 -5 150000 -137469 0 1 -- 22 31
08/05/2014 470.59 12509 -22 150000 -137491 0 -5 -- 19 35
08/06/2014 470.57 12498 -11 150000 -137502 0 -0 -- 18 36
08/07/2014 470.54 12482 -16 150000 -137518 0 -3 -- 21 38
08/08/2014 470.52 12471 -11 150000 -137529 0 -0 -- 21 39
08/09/2014 470.50 12460 -11 150000 -137540 0 -0 -- -18 39
08/10/2014 470.48 12449 -11 150000 -137551 0 -0 -- 17 37
08/11/2014 470.47 12444 159311 N 150000 -137556 0 3 -- 18 40
08/12/2014 470.44 12428 -16 150000 -137572 394 391 -- 22 39
08/13/2014 470.41 12411 -17 150000 -137589 0 -3 -- 18 35
08/14/2014 470.38 12395 -16 150000 -137605 0 -3 -- 18 37
08/15/2014 470.37 12390 -5 150000 -137610 0 3 -- 19 38
08/16/2014 470.33 12368 -22 150000 -137632 0 -6 -- 19 39
08/17/2014 470.32 12363 -5 150000 -137637 0 3 -- 18 39
08/18/2014 470.30 12352 -11 150000 -137648 0 -0 -- 18 37
08/19/2014 470.27 12336 -16 150000 -137664 0 -3 -- 18 34
08/20/2014 470.25 12325 -11 150000 -137675 0 -1 -- 17 33
08/21/2014 470.23 12314 -11 150000 -137686 0 -1 -- 18 36
08/22/2014 470.21 12303 -11 150000 -137697 0 -0 -- 19 38
08/23/2014 470.17 12282 -21 150000 -137718 0 -6 -- 18 35
08/24/2014 470.16 12276 -6 150000 -137724 0 2 -- 17 35
08/25/2014 470.14 12266 -10 150000 -137734 0 -1 -- 16 32
08/26/2014 470.11 12249 -17 150000 -137751 0 -4 -- 16 33
08/27/2014 470.09 12239 -10 150000 -137761 0 -0 -- 18 37
08/28/2014 470.07 12228 -- 150000 -- 0 -1 -- 20 39
08/29/2014 470.05 12217 -11 150000 -137783 0 -1 -- -18 37
08/30/2014 470.02 12201 -16 150000 -137799 0 -3 -- 20 39
08/31/2014 470.00 12190 -11 149510 -137320 0 -1 -- -18 35
09/01/2014 469.98 12180 -10 149010 -136830 0 0 -- 18 37
09/02/2014 -- -- -- -- -- -- -- -- -- --

Later | Latest

Warning! This data is preliminary and subject to revision.

Download Data Now Download Data Now | Show BUC Map | Plot BUC Data | 1 Month BUC Data | Real-Time BUC Data | BUC Info